Flight Track Log - Related Links

Times and Time Zones

All times are in EDT time to prevent confusion due to time zone crossing. See the AWI3551 flight status page for this flight to view local times or setup timezone preferences in your user account.

Time Position Orientation Groundspeed Altitude Reporting Facility
EDT Latitude Longitude Course Direction KTS MPH feet Rate Location/Type
Fri 05:27:00 AM 42.9500 -78.7167 174° South 151 174 1,600  Level Buffalo TRACON
Fri 05:27:18 AM 42.9667 -78.7000 36° Northeast 168 193 2,100 2,000 Climbing Buffalo TRACON
Fri 05:28:18 AM 43.0000 -78.6333 56° Northeast 229 264 4,200 2,317 Climbing Buffalo TRACON
Fri 05:28:59 AM 42.9808 -78.6025 130° Southeast 204 235 6,000 2,139 Climbing Cleveland Center
Fri 05:29:00 AM 42.6464 -78.6893 172° South  Level FlightAware Approximate
Fri 05:29:59 AM 42.9081 -78.5992 178° South 268 308 7,800  Level Cleveland Center
Fri 05:30:00 AM 42.5512 -78.6702 172° South  Level FlightAware Approximate
Fri 05:30:59 AM 42.8350 -78.6014 181° South 296 341 9,800  Level Cleveland Center
Fri 05:31:00 AM 42.4558 -78.6537 173° South  Level FlightAware Approximate
Fri 05:31:59 AM 42.7539 -78.6011 180° South 312 359 10,600  Level Cleveland Center
Fri 05:32:00 AM 42.3598 -78.6490 174° South  Level FlightAware Approximate
Fri 05:32:59 AM 42.6600 -78.6039 181° South 323 372 12,000  Level Cleveland Center
Fri 05:33:59 AM 42.5664 -78.6097 183° South 330 380 13,600 1,750 Climbing Cleveland Center
Fri 05:34:59 AM 42.4767 -78.6153 183° South 335 386 15,500 1,950 Climbing Cleveland Center
Fri 05:35:59 AM 42.3850 -78.6183 181° South 329 379 17,500 1,750 Climbing Cleveland Center
Fri 05:36:59 AM 42.2936 -78.6239 183° South 329 379 19,000 1,450 Climbing Cleveland Center
Fri 05:37:59 AM 42.2058 -78.6239 180° South 334 384 20,400 1,400 Climbing Cleveland Center
Fri 05:38:59 AM 42.1058 -78.6128 175° South 347 399 21,800 1,350 Climbing Cleveland Center
Fri 05:39:59 AM 42.0211 -78.5372 146° Southeast 347 399 23,100 1,250 Climbing Cleveland Center
Fri 05:40:59 AM 41.9342 -78.4619 147° Southeast 357 411 24,300 950 Climbing Cleveland Center
Fri 05:41:59 AM 41.8431 -78.3811 147° Southeast 382 440 25,000 350 Climbing Cleveland Center
Fri 05:42:59 AM 41.7475 -78.3008 148° Southeast 397 457 25,000  Level Cleveland Center
Fri 05:43:59 AM 41.6564 -78.2181 146° Southeast 397 457 25,000  Level Cleveland Center
Fri 05:45:11 AM 41.5417 -78.1217 148° Southeast 399 459 25,000  Level New York Center
Fri 05:46:11 AM 41.4508 -78.0397 146° Southeast 399 459 25,000  Level New York Center
Fri 05:47:09 AM 41.3678 -77.9672 147° Southeast 394 453 25,000  Level New York Center
Fri 05:48:10 AM 41.2767 -77.8911 148° Southeast 394 453 25,000  Level New York Center
Fri 05:49:10 AM 41.1836 -77.8097 147° Southeast 394 453 25,000  Level New York Center
Fri 05:50:11 AM 41.0922 -77.7342 148° Southeast 394 453 25,000  Level New York Center
Fri 05:51:09 AM 41.0008 -77.6561 147° Southeast 389 448 25,000 -610 Level New York Center
Fri 05:52:09 AM 40.9075 -77.5750 147° Southeast 389 448 23,800 -1,636 Descending New York Center
Fri 05:53:10 AM 40.8139 -77.4972 148° Southeast 389 448 21,700 -2,000 Descending New York Center
Fri 05:54:09 AM 40.7225 -77.4197 147° Southeast 389 448 19,800 -1,850 Descending New York Center
Fri 05:55:10 AM 40.6228 -77.3389 148° Southeast 381 438 18,000 -893 Descending New York Center
Fri 05:56:10 AM 40.5492 -77.2772 148° Southeast 361 415 18,000  Level New York Center
Fri 05:57:09 AM 40.4886 -77.1650 125° Southeast 350 403 18,000  Level New York Center
Fri 05:58:10 AM 40.4422 -77.0544 119° Southeast 366 421 18,000  Level New York Center
Fri 05:59:09 AM 40.3844 -76.9239 120° Southeast 378 435 18,000  Level New York Center
Fri 06:00:10 AM 40.3308 -76.7939 118° Southeast 390 449 18,000 -347 Level New York Center
Fri 06:01:10 AM 40.2914 -76.6678 112° Southeast 390 449 17,300 -1,160 Descending New York Center
Fri 06:02:09 AM 40.2661 -76.5433 105° East 365 420 15,700 -1,500 Descending New York Center
Fri 06:03:10 AM 40.2386 -76.4214 106° East 350 403 14,300 -1,537 Descending New York Center
Fri 06:04:10 AM 40.2108 -76.3047 107° East 343 395 12,600 -1,537 Descending New York Center
Fri 06:05:11 AM 40.1831 -76.1858 107° East 338 389 11,200 -1,311 Descending New York Center
Fri 06:06:09 AM 40.1567 -76.0806 108° East 319 367 10,000 -1,220 Descending New York Center
Fri 06:07:09 AM 40.1372 -76.0003 108° East 279 321 8,800 -1,388 Descending New York Center
Fri 06:08:10 AM 40.1147 -75.8981 106° East 263 303 7,200 -1,388 Descending New York Center
Fri 06:09:10 AM 40.0972 -75.8156 105° East 263 303 6,000 -600 Descending New York Center
Fri 06:10:10 AM 40.0308 -75.7592 147° Southeast 241 277 6,000 -198 Level New York Center
Fri 06:11:11 AM 39.9675 -75.7328 162° South 249 287 5,600 -1,000 Descending New York Center
Fri 06:12:10 AM 39.8964 -75.6900 155° Southeast 262 302 4,000 -814 Descending New York Center
Fri 06:13:09 AM 39.8589 -75.6358 132° Southeast 234 269 4,000  Level New York Center
Fri 06:14:10 AM 39.8256 -75.5850 130° Southeast 183 211 4,000  Level New York Center
Fri 06:14:50 AM 39.8167 -75.5500 108° East 164 189 4,000 -300 Level Philadelphia TRACON
Fri 06:15:50 AM 39.8167 -75.5000 90° East 156 180 3,500 -611 Descending Philadelphia TRACON
Fri 06:16:38 AM 39.8333 -75.4500 67° East 151 174 2,900 -750 Descending Philadelphia TRACON

Login

Don't have an account? Register now (free) for customized features, flight alerts, and more!